Pagrindinis puslapis
METAR-TAF:

METAR-TAF

Oro uostai :

Mar del Plata, Argentina

platuma: 37-56S, ilguma: 057-35W, Aukštis: 18 m

Dabartinis oras

Ataskaita buvo paskelbta 37 minutes, ne 00:00 UTC
Vėjas 8 kt iš Pietryčių
Temperatūra 13°C
Drėgmė 82%
Slėgis 1026 hPa
Matomumas 10 km arba daugiau
Su prošvaistėmis ne aukštis 3000 ft

METAR: SAZM 250000Z 13008KT 9999 BKN030 13/10 Q1026

Laikas: 21:37 (00:37 UTC)

Prognozė

Ataskaita buvo paskelbta 1 valandą ir 37 minutes, ne 23:00 UTC
Prognozė galioja nuo 25 metu 00 UTC su 25 metu 24 UTC
Vėjas 10 kt iš Pietryčių
Matomumas 10 km arba daugiau
Su prošvaistėmis ne aukštis 2500 ft
Tapsmas
nuo 25 metu 05 UTC su 25 metu 08 UTC
Vėjas 10 kt iš Rytų
Matomumas: 6000 m
Su prošvaistėmis ne aukštis 1000 ft
Tapsmas
nuo 25 metu 12 UTC su 25 metu 15 UTC
Vėjas 15 kt iš Rytų
Matomumas 10 km arba daugiau
Su prošvaistėmis ne aukštis 2500 ft

TAF: SAZM 242300Z 2500/2524 14010KT 9999 BKN025 TX16/2518Z TN12/2510Z BECMG 2505/2508 09010KT 6000 BKN010 BECMG 2512/2515 09015KT 9999 BKN025

Orai ataskaitas ir orų prognozės (METAR, TAF).

turimą stotys yra geltonos ir raudonos taškus žemėlapyje.

Perkelti pele per norėdami pamatyti stoties vardą.

Tada spustelėkite, norėdami matyti oro stebėjimo ir prognozės.

Norėdami pakeisti žemėlapį: spustelėkite ant žalios mygtukų su juodo kryžiaus žemyn,; žalią mygtuką su brūkšneliu, jei norite nutolinti; arba žalių rodyklių gretimoms žemėlapius.


METAR-TAF: